Time;durP1;ratioP1;P1;durP2;ratioP2;P2;SDS_P1;SDS_P2;PMS_P1;PMS_P2;Temp;Humidity;BMP_temperature;BMP_pressure;BME280_temperature;BME280_humidity;BME280_pressure;Samples;Min_cycle;Max_cycle;Signal;HPM_P1;HPM_P2
2022/01/17 00:00:01;;;;;;;4.13;1.90;;;;;;;17.48;56.53;103149.22;4867391;29;20069;-79
2022/01/17 00:02:28;;;;;;;4.05;1.85;;;;;;;17.48;56.64;103154.44;4884478;29;20037;-79
2022/01/17 00:04:54;;;;;;;5.18;1.92;;;;;;;17.48;56.38;103152.75;4854288;29;20036;-79
2022/01/17 00:07:19;;;;;;;3.72;1.52;;;;;;;17.47;56.42;103150.97;4868485;29;20041;-79
2022/01/17 00:09:45;;;;;;;3.53;1.67;;;;;;;17.47;56.46;103163.97;4863750;29;20064;-79
2022/01/17 00:12:10;;;;;;;4.15;1.80;;;;;;;17.47;56.29;103170.91;4848425;29;20119;-79
2022/01/17 00:14:40;;;;;;;4.47;2.00;;;;;;;17.47;56.40;103174.38;4882892;29;20041;-78
2022/01/17 00:17:27;;;;;;;4.97;1.77;;;;;;;17.46;56.25;103172.63;4884508;29;20033;-78
2022/01/17 00:19:55;;;;;;;5.80;1.88;;;;;;;17.47;56.20;103163.09;4883826;29;20029;-78
2022/01/17 00:22:22;;;;;;;5.13;1.77;;;;;;;17.47;56.43;103163.09;4884010;29;20141;-79
2022/01/17 00:24:49;;;;;;;4.15;1.80;;;;;;;17.45;56.06;103152.63;4852501;29;20113;-79
2022/01/17 00:27:14;;;;;;;5.93;1.90;;;;;;;17.45;55.98;103147.44;4883316;29;20512;-79
2022/01/17 00:29:40;;;;;;;4.03;1.70;;;;;;;17.46;56.37;103163.91;4882982;29;20065;-79
2022/01/17 00:32:06;;;;;;;5.03;1.90;;;;;;;17.46;55.90;103166.53;4851944;29;20049;-79
2022/01/17 00:34:32;;;;;;;4.10;1.45;;;;;;;17.45;56.06;103159.56;4852847;29;20041;-79
2022/01/17 00:36:57;;;;;;;5.28;1.80;;;;;;;17.45;56.33;103163.03;4852718;29;20041;-79
2022/01/17 00:39:24;;;;;;;6.03;1.75;;;;;;;17.45;55.76;103162.16;4884242;29;20579;-80
2022/01/17 00:41:50;;;;;;;5.22;1.75;;;;;;;17.45;55.78;103143.94;4885080;29;20061;-79
2022/01/17 00:44:19;;;;;;;5.22;1.65;;;;;;;17.44;55.86;103150.88;4837381;29;20049;-79
2022/01/17 00:46:45;;;;;;;5.45;1.70;;;;;;;17.45;55.81;103141.34;4868908;29;20041;-79
2022/01/17 00:49:10;;;;;;;4.13;1.80;;;;;;;17.44;55.60;103135.28;4869178;29;20148;-79
2022/01/17 00:51:36;;;;;;;5.00;1.80;;;;;;;17.44;55.71;103127.47;4832749;29;20041;-79
2022/01/17 00:54:01;;;;;;;4.95;1.70;;;;;;;17.44;56.04;103127.47;4863631;29;20154;-79
2022/01/17 00:56:26;;;;;;;3.88;1.60;;;;;;;17.44;55.99;103126.56;4849670;29;20382;-79
2022/01/17 00:58:52;;;;;;;5.80;1.80;;;;;;;17.44;55.59;103132.66;4865980;29;20078;-80
2022/01/17 01:01:17;;;;;;;4.07;1.52;;;;;;;17.44;55.67;103129.16;4882693;29;20485;-78
2022/01/17 01:03:43;;;;;;;4.13;1.70;;;;;;;17.44;55.58;103131.75;4865833;29;20074;-79
2022/01/17 01:06:09;;;;;;;5.28;1.83;;;;;;;17.44;55.59;103139.56;4883121;29;20473;-80
2022/01/17 01:08:34;;;;;;;3.38;1.42;;;;;;;17.44;55.44;103139.56;4867008;29;20036;-80
2022/01/17 01:11:00;;;;;;;4.43;1.70;;;;;;;17.43;55.43;103138.69;4882333;29;20445;-79
2022/01/17 01:13:28;;;;;;;6.35;1.40;;;;;;;17.43;55.24;103146.50;4850908;29;20082;-79
2022/01/17 01:19:26;;;;;;;3.88;1.60;;;;;;;17.42;55.15;103160.38;4885166;29;20451;-79
2022/01/17 01:29:15;;;;;;;2.95;1.60;;;;;;;17.42;55.49;103177.69;4863771;29;20122;-79
2022/01/17 01:31:48;;;;;;;5.43;1.60;;;;;;;17.42;55.34;103185.50;4886708;29;20457;-78
2022/01/17 01:34:14;;;;;;;;;;;;;;;17.42;55.38;103190.69;4869325;29;20037;-81
2022/01/17 01:36:41;;;;;;;4.07;1.50;;;;;;;17.42;55.29;103195.91;4885181;29;20003;-79
2022/01/17 01:39:08;;;;;;;4.28;1.60;;;;;;;17.40;55.42;103193.28;4886763;29;20109;-79
2022/01/17 01:41:41;;;;;;;3.63;1.52;;;;;;;17.40;55.19;103177.66;4886517;29;20588;-79
2022/01/17 01:44:15;;;;;;;5.53;1.63;;;;;;;17.39;55.18;103181.09;4886525;29;20049;-79
2022/01/17 01:46:42;;;;;;;3.55;1.50;;;;;;;17.39;55.24;103178.50;4869719;29;20408;-78
2022/01/17 01:49:08;;;;;;;4.72;1.70;;;;;;;17.40;55.02;103177.66;4870212;29;20101;-79
2022/01/17 01:51:33;;;;;;;3.53;1.50;;;;;;;17.40;55.24;103182.00;4854324;29;20041;-79
2022/01/17 01:53:59;;;;;;;3.75;1.60;;;;;;;17.39;55.09;103164.59;4870064;29;20049;-79
2022/01/17 01:56:24;;;;;;;3.80;1.52;;;;;;;17.39;54.99;103162.88;4870971;29;20041;-79
2022/01/17 01:58:50;;;;;;;6.05;1.50;;;;;;;17.39;55.18;103164.59;4854833;29;20041;-79
2022/01/17 02:01:15;;;;;;;3.55;1.55;;;;;;;17.38;54.89;103163.72;4870261;29;20133;-78
2022/01/17 02:03:40;;;;;;;4.50;1.40;;;;;;;17.38;55.00;103163.72;4886685;29;20044;-79
2022/01/17 02:06:06;;;;;;;4.47;1.67;;;;;;;17.38;55.12;103175.88;4855668;29;20496;-78
2022/01/17 02:08:31;;;;;;;3.53;1.38;;;;;;;17.37;54.93;103174.97;4841372;29;20033;-78
2022/01/17 02:10:58;;;;;;;5.15;1.50;;;;;;;17.38;55.21;103176.75;4890565;29;20041;-77
2022/01/17 02:13:25;;;;;;;3.90;1.38;;;;;;;17.38;54.98;103175.88;4872505;29;20069;-79
2022/01/17 02:15:51;;;;;;;3.28;1.33;;;;;;;17.37;54.77;103174.97;4885635;29;20039;-79
2022/01/17 02:18:29;;;;;;;6.97;1.40;;;;;;;17.37;55.22;103187.97;4869961;29;20093;-79
2022/01/17 02:23:39;;;;;;;4.05;1.40;;;;;;;17.37;54.75;103187.09;4873055;29;20137;-80
2022/01/17 02:26:05;;;;;;;4.00;1.50;;;;;;;17.37;54.77;103187.97;4887524;29;20033;-79
2022/01/17 02:28:33;;;;;;;3.45;1.40;;;;;;;17.37;54.82;103190.56;4887499;29;20033;-78
2022/01/17 02:31:04;;;;;;;4.10;1.30;;;;;;;17.36;54.75;103183.63;4870280;29;20036;-79
2022/01/17 02:33:31;;;;;;;5.40;1.50;;;;;;;17.35;54.80;103184.44;4871046;29;20056;-79
2022/01/17 02:35:56;;;;;;;5.03;1.20;;;;;;;17.35;54.62;103189.66;4887110;29;20033;-79
2022/01/17 02:38:22;;;;;;;4.85;1.60;;;;;;;17.35;54.84;103178.34;4887802;29;20445;-79
2022/01/17 02:40:50;;;;;;;4.53;1.60;;;;;;;17.35;54.61;103170.56;4870805;29;20047;-79
2022/01/17 02:43:17;;;;;;;4.45;1.50;;;;;;;17.34;54.66;103180.09;4870006;29;20444;-79
2022/01/17 02:48:20;;;;;;;4.78;1.55;;;;;;;17.35;54.68;103183.56;4872177;29;20033;-79
2022/01/17 02:50:46;;;;;;;4.10;1.27;;;;;;;17.34;54.51;103185.28;4855807;29;20155;-79
2022/01/17 02:53:12;;;;;;;2.65;1.13;;;;;;;17.34;54.60;103187.91;4891993;29;20045;-78
2022/01/17 02:55:42;;;;;;;4.18;1.38;;;;;;;17.34;54.68;103187.03;4883664;29;20041;-79
2022/01/17 02:58:08;;;;;;;4.20;1.38;;;;;;;17.35;54.65;103186.16;4868490;29;20457;-79
2022/01/17 03:00:33;;;;;;;3.03;1.40;;;;;;;17.33;54.57;103180.91;4869248;29;20033;-79
2022/01/17 03:02:58;;;;;;;3.42;1.42;;;;;;;17.33;54.52;103164.41;4854684;29;20052;-79
2022/01/17 03:05:24;;;;;;;3.30;1.25;;;;;;;17.33;54.58;103154.00;4870212;29;20507;-79
2022/01/17 03:07:50;;;;;;;4.15;1.55;;;;;;;17.33;54.79;103160.09;4854252;29;20053;-79
2022/01/17 03:10:35;;;;;;;2.83;1.25;;;;;;;17.33;54.70;103154.00;4887200;29;20096;-79
2022/01/17 03:13:05;;;;;;;4.50;1.50;;;;;;;17.33;54.37;103152.28;4855581;29;20040;-79
2022/01/17 03:15:31;;;;;;;4.53;1.40;;;;;;;17.32;54.46;103145.31;4853745;29;20060;-79
2022/01/17 03:17:56;;;;;;;3.08;1.30;;;;;;;17.33;54.63;103143.59;4869403;29;20096;-79
2022/01/17 03:20:22;;;;;;;3.58;1.50;;;;;;;17.32;54.58;103147.94;4869158;29;20137;-79
2022/01/17 03:22:47;;;;;;;2.53;1.02;;;;;;;17.32;54.20;103152.25;4886407;29;20036;-79
2022/01/17 03:25:13;;;;;;;3.85;1.40;;;;;;;17.32;54.59;103166.16;4869961;29;20437;-79
2022/01/17 03:27:38;;;;;;;4.72;1.30;;;;;;;17.31;54.49;103145.28;4855186;29;20037;-79
2022/01/17 03:30:05;;;;;;;4.25;1.50;;;;;;;17.32;54.51;103136.66;4838891;29;20036;-79
2022/01/17 03:32:30;;;;;;;4.00;1.40;;;;;;;17.32;54.50;103144.44;4870115;29;20508;-79
2022/01/17 03:34:55;;;;;;;3.95;1.52;;;;;;;17.32;54.45;103162.66;4873888;29;20085;-78
2022/01/17 03:37:21;;;;;;;5.47;1.75;;;;;;;17.31;54.41;103166.09;4868558;29;20036;-79
2022/01/17 03:39:47;;;;;;;3.53;1.33;;;;;;;17.31;54.31;103160.88;4867539;29;20037;-79
2022/01/17 03:42:12;;;;;;;3.05;1.35;;;;;;;17.31;54.48;103155.69;4884386;29;20048;-79
2022/01/17 03:44:37;;;;;;;4.05;1.33;;;;;;;17.31;54.26;103147.88;4867470;29;20090;-79
2022/01/17 03:47:03;;;;;;;5.93;1.27;;;;;;;17.30;54.40;103147.00;4867637;29;20037;-79
2022/01/17 03:49:28;;;;;;;3.45;1.40;;;;;;;17.30;54.17;103164.34;4868906;29;20403;-79
2022/01/17 03:51:54;;;;;;;4.95;1.45;;;;;;;17.30;54.23;103162.63;4853075;29;20492;-79
2022/01/17 03:54:19;;;;;;;4.13;1.55;;;;;;;17.30;54.36;103164.34;4842029;29;20140;-79
2022/01/17 03:56:44;;;;;;;3.75;1.60;;;;;;;17.28;54.01;103172.97;4855124;29;20069;-79
2022/01/17 03:59:11;;;;;;;2.67;1.10;;;;;;;17.30;54.25;103187.75;4839885;29;20124;-79
2022/01/17 04:01:37;;;;;;;4.43;1.50;;;;;;;17.29;54.23;103197.31;4839818;29;20548;-79
2022/01/17 04:04:03;;;;;;;3.75;1.25;;;;;;;17.29;54.15;103192.09;4871889;29;20400;-79
2022/01/17 04:06:28;;;;;;;3.88;1.23;;;;;;;17.30;54.07;103195.56;4856846;29;20041;-79
2022/01/17 04:08:54;;;;;;;3.40;1.20;;;;;;;17.29;54.13;103189.50;4856870;29;20045;-79
2022/01/17 04:11:19;;;;;;;4.15;1.20;;;;;;;17.28;54.09;103193.78;4892220;29;20045;-79
2022/01/17 04:13:45;;;;;;;4.18;1.35;;;;;;;17.28;54.06;103195.50;4874613;29;20048;-79
2022/01/17 04:16:12;;;;;;;3.03;1.30;;;;;;;17.28;53.99;103188.59;4860117;29;20048;-78
2022/01/17 04:18:37;;;;;;;3.78;1.40;;;;;;;17.28;54.09;103185.09;4875173;29;20036;-79
2022/01/17 04:21:03;;;;;;;3.90;1.25;;;;;;;17.27;54.10;103180.75;4842187;29;20404;-79
2022/01/17 04:23:30;;;;;;;3.22;1.30;;;;;;;17.27;54.09;103189.44;4857914;29;20052;-79
2022/01/17 04:25:56;;;;;;;3.15;1.25;;;;;;;17.27;53.99;103183.38;4889502;29;20044;-79
2022/01/17 04:28:21;;;;;;;3.08;1.30;;;;;;;17.27;54.02;103191.16;4867669;29;20029;-79
2022/01/17 04:30:47;;;;;;;3.78;1.50;;;;;;;17.27;54.06;103191.16;4866809;29;20049;-79
2022/01/17 04:33:12;;;;;;;3.72;1.23;;;;;;;17.27;54.24;103201.56;4850316;29;20123;-80
2022/01/17 04:35:39;;;;;;;5.35;1.40;;;;;;;17.26;54.09;103202.41;4850482;29;20040;-79
2022/01/17 04:38:12;;;;;;;3.53;1.40;;;;;;;17.26;53.89;103194.59;4865960;29;20064;-79
2022/01/17 04:40:39;;;;;;;2.80;1.25;;;;;;;17.26;53.97;103191.97;4865825;29;20496;-79
2022/01/17 04:43:17;;;;;;;4.30;1.38;;;;;;;17.26;53.95;103199.78;4865634;29;20489;-79
2022/01/17 04:45:42;;;;;;;5.10;1.40;;;;;;;17.25;54.14;103204.13;4865146;29;20049;-79
2022/01/17 04:48:08;;;;;;;3.40;1.50;;;;;;;17.25;53.95;103211.06;4865163;29;20378;-79
2022/01/17 04:50:35;;;;;;;3.58;1.40;;;;;;;17.25;53.82;103211.06;4865005;29;20036;-79
2022/01/17 04:53:01;;;;;;;3.40;1.42;;;;;;;17.25;53.56;103203.25;4882845;29;20040;-79
2022/01/17 04:55:28;;;;;;;4.90;1.65;;;;;;;17.25;54.06;103211.06;4868590;29;20049;-79
2022/01/17 04:57:56;;;;;;;3.80;1.40;;;;;;;17.24;53.90;103197.13;4857190;29;20074;-77
2022/01/17 05:00:23;;;;;;;3.83;1.30;;;;;;;17.24;53.78;103194.53;4871271;29;20374;-79
2022/01/17 05:02:49;;;;;;;2.60;1.30;;;;;;;17.24;53.89;103193.66;4868801;29;20370;-79
2022/01/17 05:05:15;;;;;;;4.90;1.30;;;;;;;17.24;54.01;103199.75;4884263;29;20062;-79
2022/01/17 05:07:41;;;;;;;3.22;1.40;;;;;;;17.24;54.12;103197.13;4867800;29;20029;-79
2022/01/17 05:10:13;;;;;;;4.30;1.38;;;;;;;17.24;54.24;103199.75;4852011;29;20077;-79
2022/01/17 05:12:39;;;;;;;3.15;1.67;;;;;;;17.25;54.10;103198.91;4867882;29;20045;-79
2022/01/17 05:15:19;;;;;;;2.75;1.23;;;;;;;17.25;54.21;103205.84;4884763;29;20060;-79
2022/01/17 05:17:58;;;;;;;3.55;1.42;;;;;;;17.25;54.29;103204.13;4885395;29;20437;-79
2022/01/17 05:20:24;;;;;;;4.70;1.70;;;;;;;17.26;54.16;103207.59;4871337;29;20488;-80
2022/01/17 05:22:50;;;;;;;3.58;1.50;;;;;;;17.26;54.16;103207.59;4884911;29;20081;-79
2022/01/17 05:25:15;;;;;;;3.10;1.63;;;;;;;17.27;54.17;103214.59;4868442;29;20041;-78
2022/01/17 05:27:41;;;;;;;3.28;1.60;;;;;;;17.27;54.23;103209.38;4853992;29;20049;-79
2022/01/17 05:30:10;;;;;;;3.15;1.50;;;;;;;17.27;54.01;103214.59;4855759;29;20116;-78
2022/01/17 05:32:36;;;;;;;4.35;1.60;;;;;;;17.26;54.10;103226.69;4889586;29;20464;-79
2022/01/17 05:35:03;;;;;;;3.75;1.73;;;;;;;17.26;54.12;103220.63;4873643;29;20033;-80
2022/01/17 05:37:28;;;;;;;3.45;1.77;;;;;;;17.27;54.03;103222.41;4858761;29;20044;-81
2022/01/17 05:39:53;;;;;;;3.83;1.60;;;;;;;17.27;53.82;103225.00;4859175;29;20411;-78
2022/01/17 05:42:20;;;;;;;3.67;1.60;;;;;;;17.27;53.82;103214.59;4871661;29;20049;-79
2022/01/17 05:44:46;;;;;;;4.93;1.85;;;;;;;17.27;53.90;103222.41;4866352;29;20516;-79
2022/01/17 05:47:12;;;;;;;3.50;1.77;;;;;;;17.28;53.80;103216.34;4884601;29;20139;-80
2022/01/17 05:49:37;;;;;;;4.25;2.08;;;;;;;17.26;53.91;103218.88;4885360;29;20543;-79
2022/01/17 05:52:04;;;;;;;2.85;1.45;;;;;;;17.26;53.71;103208.47;4868056;29;20041;-80
2022/01/17 05:54:30;;;;;;;3.80;1.70;;;;;;;17.26;53.80;103218.00;4868636;29;20047;-79
2022/01/17 05:56:55;;;;;;;3.65;1.80;;;;;;;17.25;53.78;103237.06;4868696;29;20120;-79
2022/01/17 05:59:20;;;;;;;4.43;1.80;;;;;;;17.26;53.71;103242.31;4854005;29;20139;-80
2022/01/17 06:01:46;;;;;;;3.78;1.70;;;;;;;17.26;53.77;103244.03;4869074;29;20052;-79
2022/01/17 06:04:11;;;;;;;4.68;1.77;;;;;;;17.27;53.66;103227.59;4867979;29;20037;-80
2022/01/17 06:06:36;;;;;;;2.85;1.48;;;;;;;17.25;53.78;103211.94;4855596;29;20123;-79
2022/01/17 06:09:03;;;;;;;3.47;1.67;;;;;;;17.26;53.72;103225.81;4868429;29;20040;-79
2022/01/17 06:11:28;;;;;;;5.95;1.50;;;;;;;17.26;53.87;103233.63;4868461;29;20048;-80
2022/01/17 06:13:53;;;;;;;6.60;2.50;;;;;;;17.26;53.96;103241.44;4867918;29;20049;-79
2022/01/17 06:16:19;;;;;;;10.32;3.38;;;;;;;17.26;54.12;103229.28;4884917;29;20060;-81
2022/01/17 06:18:44;;;;;;;8.55;3.03;;;;;;;17.27;53.96;103220.66;4837989;29;20044;-80
2022/01/17 06:21:09;;;;;;;7.90;3.35;;;;;;;17.27;54.19;103214.59;4867014;29;20049;-79
2022/01/17 06:23:35;;;;;;;9.82;3.40;;;;;;;17.29;54.41;103225.94;4868206;29;20041;-78
2022/01/17 06:26:00;;;;;;;11.70;3.10;;;;;;;17.34;54.45;103232.13;4850189;29;20064;-78
2022/01/17 06:28:26;;;;;;;8.05;2.85;;;;;;;17.37;54.63;103229.63;4882333;29;20073;-79
2022/01/17 06:30:52;;;;;;;8.23;3.03;;;;;;;17.38;54.50;103223.59;4865216;29;20064;-78
2022/01/17 06:33:17;;;;;;;8.27;2.80;;;;;;;17.38;54.48;103231.41;4864975;29;20124;-78
2022/01/17 06:35:43;;;;;;;6.70;2.78;;;;;;;17.39;54.69;103233.16;4850604;29;20507;-78
2022/01/17 06:38:08;;;;;;;11.02;2.95;;;;;;;17.40;54.70;103239.25;4866479;29;20055;-79
2022/01/17 06:40:34;;;;;;;8.80;2.97;;;;;;;17.41;54.71;103244.50;4867274;29;20048;-79
2022/01/17 06:42:59;;;;;;;8.80;2.50;;;;;;;17.42;54.66;103238.47;4883780;29;20041;-79
2022/01/17 06:45:25;;;;;;;7.53;2.80;;;;;;;17.41;54.35;103239.28;4883285;29;20087;-79
2022/01/17 06:47:50;;;;;;;7.50;2.65;;;;;;;17.42;54.30;103255.78;4867763;29;20079;-79
2022/01/17 06:50:16;;;;;;;7.75;2.60;;;;;;;17.42;54.58;103264.50;4867226;29;20053;-79
2022/01/17 06:52:41;;;;;;;4.65;2.17;;;;;;;17.43;54.53;103275.78;4883894;29;20083;-79
2022/01/17 06:55:10;;;;;;;6.20;2.63;;;;;;;17.43;54.57;103286.19;4851235;29;20045;-78
2022/01/17 06:57:36;;;;;;;4.40;2.17;;;;;;;17.44;54.46;103287.94;4883509;29;20120;-78
2022/01/17 07:00:04;;;;;;;4.03;2.28;;;;;;;17.45;54.47;103292.31;4883762;29;20076;-78
2022/01/17 07:02:29;;;;;;;9.40;2.60;;;;;;;17.45;54.34;103302.75;4867125;29;20041;-78
2022/01/17 07:04:54;;;;;;;6.55;2.42;;;;;;;17.46;54.35;103343.53;4889649;29;20511;-79
2022/01/17 07:07:21;;;;;;;6.30;2.45;;;;;;;17.46;54.32;103339.25;4881673;29;20044;-78
2022/01/17 07:09:46;;;;;;;6.43;2.22;;;;;;;17.47;54.33;103319.28;4881288;29;20069;-78
2022/01/17 07:12:11;;;;;;;4.97;1.95;;;;;;;17.47;54.38;103314.09;4849343;29;20077;-79
2022/01/17 07:14:41;;;;;;;4.03;2.00;;;;;;;17.47;54.09;103311.47;4865131;29;20037;-79
2022/01/17 07:17:11;;;;;;;6.95;2.42;;;;;;;17.47;54.39;103320.16;4882607;29;20048;-79
2022/01/17 07:19:37;;;;;;;4.57;2.20;;;;;;;17.47;54.16;103324.50;4865576;29;20035;-79
2022/01/17 07:22:06;;;;;;;7.18;2.13;;;;;;;17.48;54.49;103305.41;4866186;29;20045;-78
2022/01/17 07:24:33;;;;;;;5.68;2.40;;;;;;;17.48;54.25;103298.53;4865821;29;20097;-78
2022/01/17 07:26:58;;;;;;;4.43;1.85;;;;;;;17.48;54.21;103310.63;4835460;29;20039;-79
2022/01/17 07:29:24;;;;;;;5.32;2.28;;;;;;;17.50;54.20;103331.50;4865569;29;20044;-78
2022/01/17 07:31:50;;;;;;;5.28;2.33;;;;;;;17.50;54.24;103332.38;4882413;29;20032;-79
2022/01/17 07:34:16;;;;;;;3.90;1.95;;;;;;;17.50;54.21;103339.31;4849720;29;20120;-78
2022/01/17 07:36:41;;;;;;;4.25;2.00;;;;;;;17.51;54.18;103346.28;4864732;29;20087;-79
2022/01/17 07:39:07;;;;;;;5.93;2.45;;;;;;;17.51;54.32;103346.28;4882496;29;20041;-80
2022/01/17 07:41:32;;;;;;;4.53;1.88;;;;;;;17.51;54.08;103338.47;4848846;29;20041;-79
2022/01/17 07:43:58;;;;;;;6.38;2.10;;;;;;;17.52;54.05;103335.91;4833479;29;20374;-79
2022/01/17 07:46:29;;;;;;;5.88;1.90;;;;;;;17.52;53.99;103335.03;4889237;29;20053;-79
2022/01/17 07:51:30;;;;;;;5.32;1.73;;;;;;;17.53;53.97;103345.50;4865772;29;20041;-79
2022/01/17 07:53:56;;;;;;;5.25;2.15;;;;;;;17.52;54.06;103346.34;4849595;29;20073;-79
2022/01/17 07:56:23;;;;;;;6.00;2.08;;;;;;;17.53;54.05;103347.22;4864983;29;20080;-79
2022/01/17 07:58:48;;;;;;;7.28;2.28;;;;;;;17.54;53.58;103341.19;4865297;29;20041;-79
2022/01/17 08:01:14;;;;;;;6.82;2.20;;;;;;;17.54;53.78;103351.59;4864856;29;20096;-78
2022/01/17 08:03:39;;;;;;;6.30;2.08;;;;;;;17.55;53.95;103361.16;4849714;29;20032;-79
2022/01/17 08:06:05;;;;;;;6.25;2.20;;;;;;;17.55;54.47;103348.16;4864785;29;20048;-79
2022/01/17 08:08:30;;;;;;;4.65;1.90;;;;;;;17.56;53.95;103348.19;4848699;29;20036;-79
2022/01/17 08:10:55;;;;;;;4.95;2.15;;;;;;;17.57;53.79;103343.88;4848670;29;20045;-79
2022/01/17 08:13:21;;;;;;;5.50;2.25;;;;;;;17.56;53.80;103345.59;4833182;29;20047;-79
2022/01/17 08:15:47;;;;;;;6.07;2.10;;;;;;;17.57;53.87;103341.25;4863514;29;20120;-79
2022/01/17 08:18:13;;;;;;;5.88;2.00;;;;;;;17.58;53.83;103346.53;4880080;29;20033;-79
2022/01/17 08:20:39;;;;;;;4.93;1.95;;;;;;;17.59;53.75;103347.41;4880388;29;20041;-79
2022/01/17 08:23:04;;;;;;;7.00;2.28;;;;;;;17.60;53.61;103349.19;4880120;29;20037;-79
2022/01/17 08:25:31;;;;;;;4.63;2.15;;;;;;;17.60;54.00;103352.66;4863357;29;20048;-79
2022/01/17 08:27:56;;;;;;;3.60;1.98;;;;;;;17.60;53.82;103355.28;4886457;29;20124;-78
2022/01/17 08:30:23;;;;;;;5.30;1.98;;;;;;;17.61;53.66;103350.94;4848473;29;20033;-79
2022/01/17 08:32:49;;;;;;;4.43;1.83;;;;;;;17.61;53.80;103357.03;4847954;29;20037;-79
2022/01/17 08:35:14;;;;;;;4.10;1.70;;;;;;;17.62;54.06;103361.41;4847810;29;20041;-79
2022/01/17 08:37:39;;;;;;;4.03;1.90;;;;;;;17.63;53.84;103357.06;4863319;29;20439;-79
2022/01/17 08:40:07;;;;;;;5.65;1.85;;;;;;;17.63;53.55;103350.16;4879764;29;20045;-79
2022/01/17 08:42:37;;;;;;;4.32;1.65;;;;;;;17.64;53.72;103353.66;4879394;29;20552;-79
2022/01/17 08:45:05;;;;;;;4.68;2.03;;;;;;;17.64;53.53;103353.66;4863345;29;20029;-79
2022/01/17 08:47:31;;;;;;;5.50;1.88;;;;;;;17.66;53.59;103363.28;4862846;29;20068;-79
2022/01/17 08:49:56;;;;;;;3.97;1.80;;;;;;;17.67;53.52;103367.63;4879809;29;20483;-79
2022/01/17 08:52:22;;;;;;;4.55;1.80;;;;;;;17.66;53.63;103373.69;4847903;29;20049;-79
2022/01/17 08:54:47;;;;;;;3.90;1.88;;;;;;;17.67;53.43;103377.16;4880076;29;20085;-79
2022/01/17 08:57:14;;;;;;;3.67;1.52;;;;;;;17.69;53.63;103378.97;4848000;29;20620;-79
2022/01/17 08:59:40;;;;;;;3.95;1.77;;;;;;;17.69;53.42;103385.91;4848240;29;20041;-79
2022/01/17 09:02:06;;;;;;;4.18;1.63;;;;;;;17.69;53.41;103386.78;4848146;29;20067;-76
2022/01/17 09:04:31;;;;;;;6.55;1.67;;;;;;;17.70;53.34;103385.06;4847861;29;20033;-76
2022/01/17 09:06:57;;;;;;;3.55;1.83;;;;;;;17.71;53.48;103385.97;4847843;29;20037;-76
2022/01/17 09:09:22;;;;;;;4.28;1.75;;;;;;;17.70;53.43;103392.88;4865580;29;20049;-76
2022/01/17 09:11:48;;;;;;;3.15;1.45;;;;;;;17.73;53.45;103389.50;4881285;29;20096;-76
2022/01/17 09:14:14;;;;;;;3.80;1.67;;;;;;;17.73;53.57;103387.78;4881127;29;20068;-76
2022/01/17 09:16:39;;;;;;;4.03;1.90;;;;;;;17.75;53.60;103400.84;4834901;29;20045;-76
2022/01/17 09:19:06;;;;;;;4.53;1.90;;;;;;;17.77;53.35;103405.28;4832984;29;20101;-75
2022/01/17 09:21:32;;;;;;;4.10;1.60;;;;;;;17.78;53.21;103412.22;4863808;29;20041;-76
2022/01/17 09:23:58;;;;;;;3.03;1.48;;;;;;;17.79;53.30;103414.03;4849178;29;20061;-76
2022/01/17 09:26:27;;;;;;;4.18;1.80;;;;;;;17.80;53.10;103418.38;4881821;29;20024;-76
2022/01/17 09:28:54;;;;;;;3.40;1.70;;;;;;;17.81;53.18;103416.66;4863668;29;20128;-76
2022/01/17 09:31:20;;;;;;;4.43;1.90;;;;;;;17.81;53.30;103424.47;4863758;29;20037;-76
2022/01/17 09:33:45;;;;;;;5.57;2.10;;;;;;;17.80;53.26;103427.91;4879414;29;20053;-76
2022/01/17 09:36:11;;;;;;;4.45;1.80;;;;;;;17.80;53.52;103425.31;4847406;29;20519;-76
2022/01/17 09:38:36;;;;;;;6.30;2.00;;;;;;;17.80;52.88;103422.72;4832868;29;20044;-76
2022/01/17 09:41:03;;;;;;;4.68;1.83;;;;;;;17.80;53.29;103431.41;4850739;29;20045;-76
2022/01/17 09:43:28;;;;;;;3.67;1.58;;;;;;;17.79;53.05;103433.94;4882383;29;20045;-76
2022/01/17 09:45:54;;;;;;;4.13;1.75;;;;;;;17.77;53.50;103433.00;4850599;29;20144;-76
2022/01/17 09:48:22;;;;;;;4.05;1.73;;;;;;;17.77;53.27;103446.94;4865925;29;20044;-76
2022/01/17 09:51:15;;;;;;;4.80;1.60;;;;;;;17.76;53.19;103446.88;4883551;29;20029;-75
2022/01/17 09:53:39;;;;;;;3.50;1.58;;;;;;;17.75;53.36;103442.53;4882767;29;20532;-76
2022/01/17 09:56:07;;;;;;;5.32;2.10;;;;;;;17.76;53.39;103457.31;4866050;29;20498;-76
2022/01/17 09:58:36;;;;;;;4.07;1.85;;;;;;;17.75;53.29;103461.63;4882413;29;20049;-76
2022/01/17 10:01:03;;;;;;;3.10;1.30;;;;;;;17.73;53.63;103458.09;4865746;29;20033;-76
2022/01/17 10:03:29;;;;;;;3.50;1.70;;;;;;;17.74;53.28;103466.78;4835441;29;20154;-76
2022/01/17 10:05:55;;;;;;;5.15;1.92;;;;;;;17.75;53.62;103471.19;4882112;29;20111;-76
2022/01/17 10:08:21;;;;;;;4.15;1.70;;;;;;;17.76;53.04;103478.13;4850535;29;20067;-76
2022/01/17 10:11:13;;;;;;;3.83;1.70;;;;;;;17.74;53.22;103478.09;4865509;29;20037;-76
2022/01/17 10:13:42;;;;;;;3.60;1.73;;;;;;;17.74;53.42;103479.81;4865634;29;20456;-76
2022/01/17 10:16:19;;;;;;;3.97;1.63;;;;;;;17.74;53.34;103474.59;4882389;29;20477;-76
2022/01/17 10:18:56;;;;;;;4.20;1.73;;;;;;;17.73;53.38;103486.75;4882145;29;20041;-76
2022/01/17 10:21:41;;;;;;;4.72;1.80;;;;;;;17.73;53.17;103473.72;4881961;29;20044;-76
2022/01/17 10:37:10;;;;;;;4.85;1.75;;;;;;;17.78;53.16;103490.38;4886474;29;20152;-75
2022/01/17 10:39:37;;;;;;;4.78;1.90;;;;;;;17.77;53.06;103496.44;4852102;29;20500;-76
2022/01/17 10:42:43;;;;;;;4.05;1.73;;;;;;;17.77;52.89;103504.25;4852502;29;20044;-75
2022/01/17 10:45:14;;;;;;;4.95;1.67;;;;;;;17.77;52.97;103499.03;4883326;29;20045;-75
2022/01/17 10:47:43;;;;;;;5.07;1.98;;;;;;;17.76;53.08;103489.44;4865930;29;20132;-76
2022/01/17 10:50:39;;;;;;;4.10;1.85;;;;;;;17.78;52.86;103494.69;4865019;29;20586;-76
2022/01/17 10:53:07;;;;;;;4.95;1.80;;;;;;;17.77;52.97;103501.63;4865378;29;20048;-76
2022/01/17 10:55:36;;;;;;;3.75;1.70;;;;;;;17.76;52.88;103497.25;4881973;29;20501;-75
2022/01/17 10:58:09;;;;;;;5.10;1.90;;;;;;;17.75;52.96;103505.03;4882232;29;20067;-76
2022/01/17 11:00:37;;;;;;;3.92;1.52;;;;;;;17.75;52.81;103508.53;4882925;29;20551;-76
2022/01/17 11:03:07;;;;;;;5.40;1.60;;;;;;;17.76;53.08;103519.81;4882816;29;20113;-76
2022/01/17 11:05:35;;;;;;;3.58;1.48;;;;;;;17.77;52.84;103514.66;4865646;29;20025;-76
2022/01/17 11:08:02;;;;;;;4.25;1.50;;;;;;;17.77;53.07;103511.16;4850119;29;20048;-75
2022/01/17 11:10:37;;;;;;;4.60;1.83;;;;;;;17.76;53.16;103520.69;4865566;29;20033;-76
2022/01/17 11:13:07;;;;;;;4.50;1.60;;;;;;;17.78;52.86;103533.78;4882089;29;20045;-76
2022/01/17 11:15:34;;;;;;;5.47;2.05;;;;;;;17.78;52.71;103532.03;4867707;29;20052;-75
2022/01/17 11:18:11;;;;;;;6.68;2.13;;;;;;;17.77;52.82;103530.28;4881564;29;20089;-76
2022/01/17 11:20:37;;;;;;;3.58;1.77;;;;;;;17.78;52.93;103531.16;4850122;29;20040;-75
2022/01/17 11:23:03;;;;;;;3.97;1.80;;;;;;;17.77;52.84;103526.78;4881386;29;20377;-76
2022/01/17 11:25:32;;;;;;;4.65;1.90;;;;;;;17.78;52.80;103528.56;4880885;29;20415;-76
2022/01/17 11:27:58;;;;;;;4.93;1.85;;;;;;;17.78;52.80;103532.03;4864475;29;20037;-78
2022/01/17 11:30:25;;;;;;;3.60;1.65;;;;;;;17.80;52.65;103529.50;4834011;29;20556;-79
2022/01/17 11:32:52;;;;;;;3.55;1.70;;;;;;;17.79;52.69;103532.91;4864663;29;20544;-78
2022/01/17 11:35:19;;;;;;;4.55;1.83;;;;;;;17.80;52.81;103537.31;4850032;29;20041;-78
2022/01/17 11:37:53;;;;;;;4.55;1.60;;;;;;;17.80;52.70;103537.31;4865383;29;20036;-79
2022/01/17 11:40:23;;;;;;;;;;;;;;;17.79;52.69;103531.22;4865437;29;20036;-79
2022/01/17 11:42:50;;;;;;;5.63;1.85;;;;;;;17.79;52.85;103540.72;4865016;29;19919;-79
2022/01/17 11:45:21;;;;;;;5.50;2.03;;;;;;;17.79;52.93;103540.72;4881780;29;20101;-79
2022/01/17 11:47:51;;;;;;;5.25;2.05;;;;;;;17.79;52.77;103538.13;4864866;29;20049;-80
2022/01/17 11:50:36;;;;;;;6.32;1.95;;;;;;;17.77;52.73;103538.09;4865803;29;20041;-79
2022/01/17 11:53:10;;;;;;;4.78;1.73;;;;;;;17.78;52.88;103547.66;4866172;29;20124;-79
2022/01/17 11:55:42;;;;;;;5.25;1.90;;;;;;;17.78;52.59;103552.00;4865742;29;20072;-79
2022/01/17 11:58:28;;;;;;;4.50;1.80;;;;;;;17.78;52.79;103572.84;4886675;29;20037;-79